MDT,Max TemperatureF,Mean TemperatureF,Min TemperatureF,Max Dew PointF,MeanDew PointF,Min DewpointF,Max Humidity, Mean Humidity, Min Humidity, Max Sea Level PressureIn, Mean Sea Level PressureIn, Min Sea Level PressureIn, Max VisibilityMiles, Mean VisibilityMiles, Min VisibilityMiles, Max Wind SpeedMPH, Mean Wind SpeedMPH, Max Gust SpeedMPH,PrecipitationIn, CloudCover, Events, WindDirDegrees
2013-9-1,82,70,58,58,50,43,90,59,28,30.08,30.02,29.92,10,10,10,20,10,26,0.00,0,,129
2013-9-2,91,74,57,58,54,49,86,57,27,30.04,29.96,29.88,10,10,10,24,14,43,0.00,0,,170
2013-9-3,96,78,59,54,49,44,60,39,18,30.15,29.91,29.86,10,10,10,22,13,28,0.00,1,,184
2013-9-4,97,83,68,60,51,45,73,46,18,30.18,29.96,29.89,10,10,10,18,10,23,0.00,0,Thunderstorm,208
2013-9-5,99,82,65,59,50,41,73,44,14,30.13,30.00,29.91,10,10,10,31,11,40,0.01,2,Rain-Thunderstorm,199
2013-9-6,99,82,65,51,41,35,53,32,11,30.06,29.91,29.82,10,10,10,22,13,28,0.00,0,,226
2013-9-7,98,78,57,52,45,33,77,44,11,29.96,29.89,29.84,10,10,10,24,10,29,0.00,0,,211
2013-9-8,96,80,63,46,42,36,45,29,13,29.86,29.76,29.66,10,10,10,26,17,37,0.00,0,,192
2013-9-9,89,74,58,59,52,43,97,62,27,30.07,29.81,29.69,10,10,10,37,13,45,0.01,2,Rain-Thunderstorm,348
2013-9-10,79,68,56,59,57,54,100,73,45,30.18,30.07,29.90,10,7,0,18,10,24,0.01,6,Fog-Rain,325
2013-9-11,68,64,59,64,60,55,100,87,73,30.26,30.17,30.04,10,7,0,17,8,21,0.11,7,Fog-Rain,96
2013-9-12,66,63,60,63,61,59,100,94,87,30.32,30.24,30.12,10,3,0,22,12,29,0.34,8,Fog-Rain,95
2013-9-13,63,61,59,61,60,57,100,95,90,30.23,30.06,29.89,10,5,0,29,18,38,0.78,8,Fog-Rain,143
2013-9-14,78,68,57,62,58,54,100,75,50,30.00,29.89,29.75,10,8,2,25,11,31,0.35,4,Rain-Thunderstorm,211
2013-9-15,60,57,53,59,55,51,100,93,86,30.32,30.16,29.91,10,7,0,20,11,25,0.08,8,Fog-Rain,54
2013-9-16,66,60,53,57,54,52,100,84,67,30.29,30.17,30.01,10,8,2,25,14,37,0.00,7,,149
2013-9-17,85,71,56,58,53,42,100,62,23,30.08,29.84,29.68,10,10,9,25,15,37,0.00,1,,195
2013-9-18,87,72,57,56,50,43,84,54,23,29.89,29.73,29.62,10,9,1,40,14,47,0.53,2,Rain-Thunderstorm,294
2013-9-19,65,57,48,55,47,41,87,65,43,30.14,29.98,29.73,10,10,10,25,11,32,0.01,2,,344
2013-9-20,75,60,45,50,45,41,93,63,33,30.14,30.04,29.94,10,10,4,20,7,29,0.00,1,,217
2013-9-21,83,69,54,53,50,43,89,57,24,29.94,29.81,29.66,10,10,10,23,11,28,0.00,0,,193
2013-9-22,87,71,54,55,49,39,93,56,18,29.69,29.56,29.42,10,10,9,41,16,60,0.03,1,Rain-Thunderstorm,219
2013-9-23,60,53,45,54,50,45,100,86,72,30.00,29.64,29.36,10,6,1,41,14,52,1.82,6,Rain,317
2013-9-24,72,58,44,46,41,37,93,61,29,30.09,29.98,29.81,10,10,10,21,9,35,0.01,0,,204
2013-9-25,84,63,41,46,41,31,96,56,15,29.79,29.56,29.39,10,10,10,29,14,40,0.00,0,,175
2013-9-26,73,60,46,49,45,34,86,62,38,29.68,29.60,29.46,10,10,10,17,13,23,0.00,0,,358
2013-9-27,56,49,41,49,44,41,100,83,66,29.96,29.78,29.61,10,8,0,24,11,30,0.20,7,Fog-Rain,350
2013-9-28,65,51,37,40,34,29,93,61,28,30.11,30.07,29.95,10,10,10,18,10,28,0.00,0,,251
2013-9-29,75,59,42,39,33,26,70,44,17,30.04,29.90,29.79,10,10,10,14,10,22,0.00,0,,229
2013-9-30,82,66,50,41,35,30,54,35,16,29.81,29.73,29.65,10,10,10,23,8,26,0.00,0,,204